Saragosa, Texas
Current Conditions -  °F | °C
As of 10:55 AM on Friday 28 Nov 2014 (Local Time) from KPEQ Reporting Station
Clear Clear  
Wind Chill: 53°   Ceiling: Unl
Heat Index: 53°   Visibility: 10mi
Dew Point: 31°   Wind: 3mph
Humidity: 44%   Direction: 200°SSW
Pressure: 30.19"   Gusts: NA
Location:  31.02°N, 103.66°W
Report Text: KPEQ 281655Z AUTO 20003KT 10SM CLR 12/00 A3019 RMK AO2 T01151005
Loading
Personal Weather Stations






























Interactive Weather Map New forecast layout! Learn more

10-Day Weather Forecast

Advertisements
Track Severe Weather on mobile